sensor_id;sensor_type;location;lat;lon;timestamp;temperature;humidity
16040;DHT22;8124;48.634;8.120;2023-06-22T00:01:35;26.20;99.90
16040;DHT22;8124;48.634;8.120;2023-06-22T00:06:39;26.10;99.90
16040;DHT22;8124;48.634;8.120;2023-06-22T00:11:42;25.90;99.90
16040;DHT22;8124;48.634;8.120;2023-06-22T00:16:45;24.60;99.90
16040;DHT22;8124;48.634;8.120;2023-06-22T00:21:51;24.90;99.90
16040;DHT22;8124;48.634;8.120;2023-06-22T00:26:55;25.20;99.90
16040;DHT22;8124;48.634;8.120;2023-06-22T00:31:58;25.10;99.90
16040;DHT22;8124;48.634;8.120;2023-06-22T00:37:02;25.20;99.90
16040;DHT22;8124;48.634;8.120;2023-06-22T00:42:05;25.20;99.90
16040;DHT22;8124;48.634;8.120;2023-06-22T00:47:08;25.10;99.90
16040;DHT22;8124;48.634;8.120;2023-06-22T00:52:13;24.90;99.90
16040;DHT22;8124;48.634;8.120;2023-06-22T00:57:24;25.10;99.90
16040;DHT22;8124;48.634;8.120;2023-06-22T01:02:30;25.00;99.90
16040;DHT22;8124;48.634;8.120;2023-06-22T01:07:37;25.10;99.90
16040;DHT22;8124;48.634;8.120;2023-06-22T01:12:44;25.10;99.90
16040;DHT22;8124;48.634;8.120;2023-06-22T01:17:48;25.30;99.90
16040;DHT22;8124;48.634;8.120;2023-06-22T01:23:07;25.30;99.90
16040;DHT22;8124;48.634;8.120;2023-06-22T01:28:23;25.40;99.90
16040;DHT22;8124;48.634;8.120;2023-06-22T01:33:28;25.40;99.90
16040;DHT22;8124;48.634;8.120;2023-06-22T01:38:32;25.30;99.90
16040;DHT22;8124;48.634;8.120;2023-06-22T01:43:37;24.90;99.90
16040;DHT22;8124;48.634;8.120;2023-06-22T01:48:42;25.10;99.90
16040;DHT22;8124;48.634;8.120;2023-06-22T01:53:45;25.10;99.90
16040;DHT22;8124;48.634;8.120;2023-06-22T01:58:54;25.10;99.90
16040;DHT22;8124;48.634;8.120;2023-06-22T02:04:03;24.90;99.90
16040;DHT22;8124;48.634;8.120;2023-06-22T02:09:09;24.90;99.90
16040;DHT22;8124;48.634;8.120;2023-06-22T02:14:15;24.80;99.90
16040;DHT22;8124;48.634;8.120;2023-06-22T02:19:24;24.70;99.90
16040;DHT22;8124;48.634;8.120;2023-06-22T02:24:29;24.60;99.90
16040;DHT22;8124;48.634;8.120;2023-06-22T02:29:33;24.40;99.90
16040;DHT22;8124;48.634;8.120;2023-06-22T02:34:38;24.30;99.90
16040;DHT22;8124;48.634;8.120;2023-06-22T02:39:41;24.30;99.90
16040;DHT22;8124;48.634;8.120;2023-06-22T02:44:44;24.20;99.90
16040;DHT22;8124;48.634;8.120;2023-06-22T02:49:48;23.70;99.90
16040;DHT22;8124;48.634;8.120;2023-06-22T02:54:51;23.70;99.90
16040;DHT22;8124;48.634;8.120;2023-06-22T02:59:54;23.40;99.90
16040;DHT22;8124;48.634;8.120;2023-06-22T03:04:59;23.50;99.90
16040;DHT22;8124;48.634;8.120;2023-06-22T03:10:04;23.70;99.90
16040;DHT22;8124;48.634;8.120;2023-06-22T03:15:09;23.90;99.90
16040;DHT22;8124;48.634;8.120;2023-06-22T03:20:13;24.00;99.90
16040;DHT22;8124;48.634;8.120;2023-06-22T03:25:16;23.90;99.90
16040;DHT22;8124;48.634;8.120;2023-06-22T03:30:22;23.80;99.90
16040;DHT22;8124;48.634;8.120;2023-06-22T03:35:27;23.30;99.90
16040;DHT22;8124;48.634;8.120;2023-06-22T03:40:30;23.30;99.90
16040;DHT22;8124;48.634;8.120;2023-06-22T03:45:35;23.50;99.90
16040;DHT22;8124;48.634;8.120;2023-06-22T03:50:45;23.40;99.90
16040;DHT22;8124;48.634;8.120;2023-06-22T03:55:48;23.40;99.90
16040;DHT22;8124;48.634;8.120;2023-06-22T04:00:53;23.30;99.90
16040;DHT22;8124;48.634;8.120;2023-06-22T04:05:57;23.40;99.90
16040;DHT22;8124;48.634;8.120;2023-06-22T04:11:00;23.60;99.90
16040;DHT22;8124;48.634;8.120;2023-06-22T04:16:04;23.50;99.90
16040;DHT22;8124;48.634;8.120;2023-06-22T04:21:09;23.50;99.90
16040;DHT22;8124;48.634;8.120;2023-06-22T04:26:12;23.40;99.90
16040;DHT22;8124;48.634;8.120;2023-06-22T04:31:16;23.60;99.90
16040;DHT22;8124;48.634;8.120;2023-06-22T04:36:20;23.50;99.90
16040;DHT22;8124;48.634;8.120;2023-06-22T04:41:27;23.50;99.90
16040;DHT22;8124;48.634;8.120;2023-06-22T04:46:29;23.40;99.90
16040;DHT22;8124;48.634;8.120;2023-06-22T04:51:34;23.60;99.90
16040;DHT22;8124;48.634;8.120;2023-06-22T04:56:37;23.80;99.90
16040;DHT22;8124;48.634;8.120;2023-06-22T05:01:42;23.70;99.90
16040;DHT22;8124;48.634;8.120;2023-06-22T05:06:47;23.70;99.90
16040;DHT22;8124;48.634;8.120;2023-06-22T05:11:50;23.70;99.90
16040;DHT22;8124;48.634;8.120;2023-06-22T05:16:53;23.90;99.90
16040;DHT22;8124;48.634;8.120;2023-06-22T05:22:01;23.70;99.90
16040;DHT22;8124;48.634;8.120;2023-06-22T05:27:05;23.90;99.90
16040;DHT22;8124;48.634;8.120;2023-06-22T05:32:08;24.10;99.90
16040;DHT22;8124;48.634;8.120;2023-06-22T05:37:13;24.30;99.90
16040;DHT22;8124;48.634;8.120;2023-06-22T05:42:16;24.40;99.90
16040;DHT22;8124;48.634;8.120;2023-06-22T05:47:19;24.50;99.90
16040;DHT22;8124;48.634;8.120;2023-06-22T05:52:23;24.50;99.90
16040;DHT22;8124;48.634;8.120;2023-06-22T05:57:26;24.60;99.90
16040;DHT22;8124;48.634;8.120;2023-06-22T06:02:29;24.70;99.90
16040;DHT22;8124;48.634;8.120;2023-06-22T06:07:33;24.80;99.90
16040;DHT22;8124;48.634;8.120;2023-06-22T06:12:36;25.00;99.90
16040;DHT22;8124;48.634;8.120;2023-06-22T06:17:45;25.00;99.90
16040;DHT22;8124;48.634;8.120;2023-06-22T06:22:50;25.00;99.90
16040;DHT22;8124;48.634;8.120;2023-06-22T06:27:53;25.30;99.90
16040;DHT22;8124;48.634;8.120;2023-06-22T06:32:57;25.30;99.90
16040;DHT22;8124;48.634;8.120;2023-06-22T06:38:01;25.40;99.90
16040;DHT22;8124;48.634;8.120;2023-06-22T06:43:05;25.60;99.90
16040;DHT22;8124;48.634;8.120;2023-06-22T06:48:08;25.80;99.90
16040;DHT22;8124;48.634;8.120;2023-06-22T06:53:12;26.00;99.90
16040;DHT22;8124;48.634;8.120;2023-06-22T06:58:15;26.10;99.90
16040;DHT22;8124;48.634;8.120;2023-06-22T07:03:18;26.20;99.90
16040;DHT22;8124;48.634;8.120;2023-06-22T07:08:22;26.50;99.90
16040;DHT22;8124;48.634;8.120;2023-06-22T07:13:25;26.50;99.90
16040;DHT22;8124;48.634;8.120;2023-06-22T07:18:28;26.80;99.90
16040;DHT22;8124;48.634;8.120;2023-06-22T07:23:33;26.70;99.90
16040;DHT22;8124;48.634;8.120;2023-06-22T07:28:36;26.60;99.90
16040;DHT22;8124;48.634;8.120;2023-06-22T07:33:39;26.60;99.90
16040;DHT22;8124;48.634;8.120;2023-06-22T07:38:44;26.70;99.90
16040;DHT22;8124;48.634;8.120;2023-06-22T07:43:48;26.60;99.90
16040;DHT22;8124;48.634;8.120;2023-06-22T07:48:51;26.50;99.90
16040;DHT22;8124;48.634;8.120;2023-06-22T07:53:58;26.30;99.90
16040;DHT22;8124;48.634;8.120;2023-06-22T07:59:01;26.30;99.90
16040;DHT22;8124;48.634;8.120;2023-06-22T08:04:05;26.20;99.90
16040;DHT22;8124;48.634;8.120;2023-06-22T08:09:10;26.20;99.90
16040;DHT22;8124;48.634;8.120;2023-06-22T08:14:13;26.50;99.90
16040;DHT22;8124;48.634;8.120;2023-06-22T08:19:17;26.20;99.90
16040;DHT22;8124;48.634;8.120;2023-06-22T08:24:21;26.30;99.90
16040;DHT22;8124;48.634;8.120;2023-06-22T08:29:24;26.30;99.90
16040;DHT22;8124;48.634;8.120;2023-06-22T08:34:27;26.80;99.90
16040;DHT22;8124;48.634;8.120;2023-06-22T08:39:31;27.00;99.90
16040;DHT22;8124;48.634;8.120;2023-06-22T08:44:37;27.20;99.90
16040;DHT22;8124;48.634;8.120;2023-06-22T08:49:39;27.50;99.90
16040;DHT22;8124;48.634;8.120;2023-06-22T08:54:44;28.00;99.90
16040;DHT22;8124;48.634;8.120;2023-06-22T08:59:47;27.80;99.90
16040;DHT22;8124;48.634;8.120;2023-06-22T09:04:50;27.90;99.90
16040;DHT22;8124;48.634;8.120;2023-06-22T09:09:59;28.10;99.90
16040;DHT22;8124;48.634;8.120;2023-06-22T09:15:06;28.30;99.90
16040;DHT22;8124;48.634;8.120;2023-06-22T09:20:14;28.20;99.90
16040;DHT22;8124;48.634;8.120;2023-06-22T09:25:18;27.90;99.90
16040;DHT22;8124;48.634;8.120;2023-06-22T09:30:22;28.10;99.90
16040;DHT22;8124;48.634;8.120;2023-06-22T09:35:25;28.20;99.90
16040;DHT22;8124;48.634;8.120;2023-06-22T09:40:30;28.20;99.90
16040;DHT22;8124;48.634;8.120;2023-06-22T09:45:34;28.10;99.90
16040;DHT22;8124;48.634;8.120;2023-06-22T09:50:37;28.10;99.90
16040;DHT22;8124;48.634;8.120;2023-06-22T09:55:41;28.00;99.90
16040;DHT22;8124;48.634;8.120;2023-06-22T10:00:44;28.20;99.90
16040;DHT22;8124;48.634;8.120;2023-06-22T10:05:47;28.10;99.90
16040;DHT22;8124;48.634;8.120;2023-06-22T10:10:52;28.20;99.90
16040;DHT22;8124;48.634;8.120;2023-06-22T10:15:55;28.20;99.90
16040;DHT22;8124;48.634;8.120;2023-06-22T10:20:58;28.40;99.90
16040;DHT22;8124;48.634;8.120;2023-06-22T10:26:02;28.50;99.90
16040;DHT22;8124;48.634;8.120;2023-06-22T10:31:05;28.40;99.90
16040;DHT22;8124;48.634;8.120;2023-06-22T10:36:08;28.50;99.90
16040;DHT22;8124;48.634;8.120;2023-06-22T10:41:13;28.70;99.90
16040;DHT22;8124;48.634;8.120;2023-06-22T10:46:16;29.00;99.90
16040;DHT22;8124;48.634;8.120;2023-06-22T10:51:19;29.00;99.90
16040;DHT22;8124;48.634;8.120;2023-06-22T10:56:23;29.00;99.90
16040;DHT22;8124;48.634;8.120;2023-06-22T11:01:26;29.20;99.90
16040;DHT22;8124;48.634;8.120;2023-06-22T11:06:37;29.20;99.90
16040;DHT22;8124;48.634;8.120;2023-06-22T11:11:41;29.20;99.90
16040;DHT22;8124;48.634;8.120;2023-06-22T11:16:44;29.40;99.90
16040;DHT22;8124;48.634;8.120;2023-06-22T11:21:51;29.50;99.90
16040;DHT22;8124;48.634;8.120;2023-06-22T11:26:55;29.60;99.90
16040;DHT22;8124;48.634;8.120;2023-06-22T11:32:00;29.60;99.90
16040;DHT22;8124;48.634;8.120;2023-06-22T11:37:04;29.80;99.90
16040;DHT22;8124;48.634;8.120;2023-06-22T11:42:09;30.00;99.90
16040;DHT22;8124;48.634;8.120;2023-06-22T11:47:12;30.10;99.90
16040;DHT22;8124;48.634;8.120;2023-06-22T11:52:15;30.10;99.90
16040;DHT22;8124;48.634;8.120;2023-06-22T11:57:20;30.30;99.90
16040;DHT22;8124;48.634;8.120;2023-06-22T12:02:23;30.30;99.90
16040;DHT22;8124;48.634;8.120;2023-06-22T12:07:26;30.40;99.90
16040;DHT22;8124;48.634;8.120;2023-06-22T12:12:31;30.30;99.90
16040;DHT22;8124;48.634;8.120;2023-06-22T12:17:34;30.20;99.90
16040;DHT22;8124;48.634;8.120;2023-06-22T12:22:37;30.10;99.90
16040;DHT22;8124;48.634;8.120;2023-06-22T12:27:41;30.10;99.90
16040;DHT22;8124;48.634;8.120;2023-06-22T12:32:44;30.10;99.90
16040;DHT22;8124;48.634;8.120;2023-06-22T12:37:48;30.40;99.90
16040;DHT22;8124;48.634;8.120;2023-06-22T12:42:52;30.60;99.90
16040;DHT22;8124;48.634;8.120;2023-06-22T12:47:55;30.70;99.90
16040;DHT22;8124;48.634;8.120;2023-06-22T12:52:58;30.70;99.90
16040;DHT22;8124;48.634;8.120;2023-06-22T12:58:03;30.70;99.90
16040;DHT22;8124;48.634;8.120;2023-06-22T13:03:06;30.90;99.90
16040;DHT22;8124;48.634;8.120;2023-06-22T13:08:09;30.90;99.90
16040;DHT22;8124;48.634;8.120;2023-06-22T13:13:15;31.00;99.90
16040;DHT22;8124;48.634;8.120;2023-06-22T13:18:18;31.00;99.90
16040;DHT22;8124;48.634;8.120;2023-06-22T13:23:21;31.00;99.90
16040;DHT22;8124;48.634;8.120;2023-06-22T13:28:25;31.10;99.90
16040;DHT22;8124;48.634;8.120;2023-06-22T13:33:30;31.30;99.90
16040;DHT22;8124;48.634;8.120;2023-06-22T13:38:34;31.30;99.90
16040;DHT22;8124;48.634;8.120;2023-06-22T13:43:41;31.30;99.90
16040;DHT22;8124;48.634;8.120;2023-06-22T13:48:44;31.30;99.90
16040;DHT22;8124;48.634;8.120;2023-06-22T13:53:47;31.40;99.90
16040;DHT22;8124;48.634;8.120;2023-06-22T13:58:51;31.30;99.90
16040;DHT22;8124;48.634;8.120;2023-06-22T14:03:54;31.20;99.90
16040;DHT22;8124;48.634;8.120;2023-06-22T14:08:57;31.20;99.90
16040;DHT22;8124;48.634;8.120;2023-06-22T14:14:02;31.30;99.90
16040;DHT22;8124;48.634;8.120;2023-06-22T14:19:04;31.50;99.90
16040;DHT22;8124;48.634;8.120;2023-06-22T14:24:07;31.60;99.90
16040;DHT22;8124;48.634;8.120;2023-06-22T14:29:12;31.80;99.90
16040;DHT22;8124;48.634;8.120;2023-06-22T14:34:15;32.00;99.90
16040;DHT22;8124;48.634;8.120;2023-06-22T14:39:18;32.10;99.90
16040;DHT22;8124;48.634;8.120;2023-06-22T14:44:24;32.30;99.90
16040;DHT22;8124;48.634;8.120;2023-06-22T14:49:28;32.30;99.90
16040;DHT22;8124;48.634;8.120;2023-06-22T14:54:31;32.20;99.90
16040;DHT22;8124;48.634;8.120;2023-06-22T14:59:35;32.10;99.90
16040;DHT22;8124;48.634;8.120;2023-06-22T15:04:38;32.20;99.90
16040;DHT22;8124;48.634;8.120;2023-06-22T15:09:45;32.20;99.90
16040;DHT22;8124;48.634;8.120;2023-06-22T15:14:49;32.20;99.90
16040;DHT22;8124;48.634;8.120;2023-06-22T15:19:52;32.20;99.90
16040;DHT22;8124;48.634;8.120;2023-06-22T15:24:55;32.40;99.90
16040;DHT22;8124;48.634;8.120;2023-06-22T15:30:01;32.60;99.90
16040;DHT22;8124;48.634;8.120;2023-06-22T15:35:06;32.70;99.90
16040;DHT22;8124;48.634;8.120;2023-06-22T15:40:10;32.70;99.90
16040;DHT22;8124;48.634;8.120;2023-06-22T15:45:14;32.80;99.90
16040;DHT22;8124;48.634;8.120;2023-06-22T15:50:17;32.90;98.90
16040;DHT22;8124;48.634;8.120;2023-06-22T15:55:21;32.70;96.70
16040;DHT22;8124;48.634;8.120;2023-06-22T16:00:26;32.80;94.70
16040;DHT22;8124;48.634;8.120;2023-06-22T16:05:29;32.90;93.10
16040;DHT22;8124;48.634;8.120;2023-06-22T16:10:32;32.90;91.30
16040;DHT22;8124;48.634;8.120;2023-06-22T16:15:36;33.00;90.20
16040;DHT22;8124;48.634;8.120;2023-06-22T16:20:39;32.90;87.60
16040;DHT22;8124;48.634;8.120;2023-06-22T16:25:42;32.90;85.20
16040;DHT22;8124;48.634;8.120;2023-06-22T16:30:47;32.90;83.00
16040;DHT22;8124;48.634;8.120;2023-06-22T16:35:53;32.90;81.50
16040;DHT22;8124;48.634;8.120;2023-06-22T16:40:56;32.80;79.10
16040;DHT22;8124;48.634;8.120;2023-06-22T16:46:00;32.90;77.80
16040;DHT22;8124;48.634;8.120;2023-06-22T16:51:04;32.90;76.70
16040;DHT22;8124;48.634;8.120;2023-06-22T16:56:07;32.80;75.70
16040;DHT22;8124;48.634;8.120;2023-06-22T17:01:11;32.50;74.50
16040;DHT22;8124;48.634;8.120;2023-06-22T17:06:15;32.20;73.70
16040;DHT22;8124;48.634;8.120;2023-06-22T17:11:19;32.10;73.60
16040;DHT22;8124;48.634;8.120;2023-06-22T17:16:24;31.90;74.10
16040;DHT22;8124;48.634;8.120;2023-06-22T17:21:29;31.80;75.50
16040;DHT22;8124;48.634;8.120;2023-06-22T17:26:34;31.70;77.30
16040;DHT22;8124;48.634;8.120;2023-06-22T17:31:40;31.80;79.10
16040;DHT22;8124;48.634;8.120;2023-06-22T17:36:45;31.60;80.00
16040;DHT22;8124;48.634;8.120;2023-06-22T17:41:49;31.40;80.20
16040;DHT22;8124;48.634;8.120;2023-06-22T17:46:55;31.10;80.30
16040;DHT22;8124;48.634;8.120;2023-06-22T17:52:00;30.90;80.80
16040;DHT22;8124;48.634;8.120;2023-06-22T17:57:13;30.90;82.20
16040;DHT22;8124;48.634;8.120;2023-06-22T18:02:24;30.70;82.70
16040;DHT22;8124;48.634;8.120;2023-06-22T18:07:28;30.60;84.30
16040;DHT22;8124;48.634;8.120;2023-06-22T18:12:33;30.60;85.70
16040;DHT22;8124;48.634;8.120;2023-06-22T18:17:40;30.30;86.50
16040;DHT22;8124;48.634;8.120;2023-06-22T18:22:46;30.20;88.10
16040;DHT22;8124;48.634;8.120;2023-06-22T18:27:51;30.10;89.50
16040;DHT22;8124;48.634;8.120;2023-06-22T18:32:56;30.10;89.70
16040;DHT22;8124;48.634;8.120;2023-06-22T18:38:00;30.00;89.30
16040;DHT22;8124;48.634;8.120;2023-06-22T18:43:03;30.10;89.70
16040;DHT22;8124;48.634;8.120;2023-06-22T18:48:08;30.00;90.00
16040;DHT22;8124;48.634;8.120;2023-06-22T18:53:16;30.00;90.60
16040;DHT22;8124;48.634;8.120;2023-06-22T18:58:23;30.00;91.40
16040;DHT22;8124;48.634;8.120;2023-06-22T19:03:35;29.80;91.90
16040;DHT22;8124;48.634;8.120;2023-06-22T19:14:23;28.90;95.30
16040;DHT22;8124;48.634;8.120;2023-06-22T19:19:28;28.10;99.90
16040;DHT22;8124;48.634;8.120;2023-06-22T19:24:32;27.50;99.90
16040;DHT22;8124;48.634;8.120;2023-06-22T19:29:52;26.60;99.90
16040;DHT22;8124;48.634;8.120;2023-06-22T19:34:57;25.90;99.90
16040;DHT22;8124;48.634;8.120;2023-06-22T19:40:02;25.40;99.90
16040;DHT22;8124;48.634;8.120;2023-06-22T19:45:09;25.20;99.90
16040;DHT22;8124;48.634;8.120;2023-06-22T19:50:13;24.70;99.90
16040;DHT22;8124;48.634;8.120;2023-06-22T19:55:18;25.00;99.90
16040;DHT22;8124;48.634;8.120;2023-06-22T20:00:22;24.60;99.90
16040;DHT22;8124;48.634;8.120;2023-06-22T20:05:26;24.30;99.90
16040;DHT22;8124;48.634;8.120;2023-06-22T20:10:36;24.40;99.90
16040;DHT22;8124;48.634;8.120;2023-06-22T20:15:40;24.30;99.90
16040;DHT22;8124;48.634;8.120;2023-06-22T20:20:47;24.60;99.90
16040;DHT22;8124;48.634;8.120;2023-06-22T20:25:50;24.60;99.90
16040;DHT22;8124;48.634;8.120;2023-06-22T20:31:02;24.90;99.90
16040;DHT22;8124;48.634;8.120;2023-06-22T20:36:08;24.90;99.90
16040;DHT22;8124;48.634;8.120;2023-06-22T20:41:12;24.80;99.90
16040;DHT22;8124;48.634;8.120;2023-06-22T20:46:17;25.10;99.90
16040;DHT22;8124;48.634;8.120;2023-06-22T20:51:22;25.10;99.90
16040;DHT22;8124;48.634;8.120;2023-06-22T20:56:27;25.20;99.90
16040;DHT22;8124;48.634;8.120;2023-06-22T21:01:30;25.10;99.90
16040;DHT22;8124;48.634;8.120;2023-06-22T21:06:36;25.20;99.90
16040;DHT22;8124;48.634;8.120;2023-06-22T21:11:41;24.90;99.90
16040;DHT22;8124;48.634;8.120;2023-06-22T21:16:44;24.80;99.90
16040;DHT22;8124;48.634;8.120;2023-06-22T21:21:48;24.80;99.90
16040;DHT22;8124;48.634;8.120;2023-06-22T21:26:51;24.70;99.90
16040;DHT22;8124;48.634;8.120;2023-06-22T21:31:54;24.40;99.90
16040;DHT22;8124;48.634;8.120;2023-06-22T21:36:59;24.50;99.90
16040;DHT22;8124;48.634;8.120;2023-06-22T21:42:02;24.40;99.90
16040;DHT22;8124;48.634;8.120;2023-06-22T21:47:17;24.40;99.90
16040;DHT22;8124;48.634;8.120;2023-06-22T21:52:21;24.30;99.90
16040;DHT22;8124;48.634;8.120;2023-06-22T21:57:24;24.30;99.90
16040;DHT22;8124;48.634;8.120;2023-06-22T22:02:28;24.40;99.90
16040;DHT22;8124;48.634;8.120;2023-06-22T22:07:33;24.40;99.90
16040;DHT22;8124;48.634;8.120;2023-06-22T22:12:36;24.20;99.90
16040;DHT22;8124;48.634;8.120;2023-06-22T22:17:39;23.90;99.90
16040;DHT22;8124;48.634;8.120;2023-06-22T22:22:43;23.80;99.90
16040;DHT22;8124;48.634;8.120;2023-06-22T22:27:46;23.80;99.90
16040;DHT22;8124;48.634;8.120;2023-06-22T22:32:49;23.80;99.90
16040;DHT22;8124;48.634;8.120;2023-06-22T22:37:53;23.70;99.90
16040;DHT22;8124;48.634;8.120;2023-06-22T22:42:57;23.60;99.90
16040;DHT22;8124;48.634;8.120;2023-06-22T22:48:00;23.30;99.90
16040;DHT22;8124;48.634;8.120;2023-06-22T22:53:05;23.30;99.90
16040;DHT22;8124;48.634;8.120;2023-06-22T22:58:09;23.20;99.90
16040;DHT22;8124;48.634;8.120;2023-06-22T23:03:13;23.30;99.90
16040;DHT22;8124;48.634;8.120;2023-06-22T23:08:17;23.20;99.90
16040;DHT22;8124;48.634;8.120;2023-06-22T23:13:20;22.90;99.90
16040;DHT22;8124;48.634;8.120;2023-06-22T23:18:23;22.80;99.90
16040;DHT22;8124;48.634;8.120;2023-06-22T23:23:27;22.90;99.90
16040;DHT22;8124;48.634;8.120;2023-06-22T23:28:30;22.80;99.90
16040;DHT22;8124;48.634;8.120;2023-06-22T23:33:38;22.70;99.90
16040;DHT22;8124;48.634;8.120;2023-06-22T23:38:43;22.60;99.90
16040;DHT22;8124;48.634;8.120;2023-06-22T23:43:47;22.60;99.90
16040;DHT22;8124;48.634;8.120;2023-06-22T23:48:52;22.50;99.90
16040;DHT22;8124;48.634;8.120;2023-06-22T23:53:56;22.80;99.90
16040;DHT22;8124;48.634;8.120;2023-06-22T23:58:59;22.80;99.90
